createdAt,value
2023-03-18T00:00:41.972Z,17.20
2023-03-18T00:03:09.060Z,17.23
2023-03-18T00:05:36.381Z,20.08
2023-03-18T00:08:04.624Z,17.95
2023-03-18T00:10:33.208Z,19.30
2023-03-18T00:13:01.341Z,19.42
2023-03-18T00:15:28.823Z,18.15
2023-03-18T00:17:59.096Z,22.38
2023-03-18T00:20:38.595Z,20.00
2023-03-18T00:23:08.013Z,22.38
2023-03-18T00:25:35.909Z,20.17
2023-03-18T00:28:03.656Z,20.67
2023-03-18T00:30:31.193Z,22.70
2023-03-18T00:32:59.058Z,19.80
2023-03-18T00:35:30.885Z,22.40
2023-03-18T00:37:58.774Z,23.70
2023-03-18T00:40:43.250Z,24.33
2023-03-18T00:43:12.843Z,20.73
2023-03-18T00:45:40.971Z,21.10
2023-03-18T00:48:08.950Z,24.13
2023-03-18T00:50:37.072Z,24.50
2023-03-18T00:53:04.450Z,23.40
2023-03-18T00:55:32.539Z,21.63
2023-03-18T00:57:59.707Z,24.70
2023-03-18T01:00:27.143Z,21.15
2023-03-18T01:02:55.157Z,22.88
2023-03-18T01:05:22.969Z,19.05
2023-03-18T01:07:50.310Z,18.45
2023-03-18T01:10:17.630Z,18.52
2023-03-18T01:12:47.138Z,21.75
2023-03-18T01:15:15.502Z,20.00
2023-03-18T01:17:42.733Z,19.35
2023-03-18T01:20:11.569Z,22.90
2023-03-18T01:22:41.340Z,21.38
2023-03-18T01:25:10.041Z,22.05
2023-03-18T01:27:37.975Z,22.30
2023-03-18T01:30:05.948Z,21.42
2023-03-18T01:32:33.358Z,23.52
2023-03-18T01:35:00.512Z,24.27
2023-03-18T01:37:28.994Z,22.38
2023-03-18T01:39:56.224Z,22.67
2023-03-18T01:42:23.391Z,23.70
2023-03-18T01:44:50.751Z,19.63
2023-03-18T01:47:18.003Z,23.67
2023-03-18T01:49:49.325Z,18.30
2023-03-18T01:54:49.828Z,22.30
2023-03-18T01:57:17.905Z,16.33
2023-03-18T01:59:45.813Z,18.33
2023-03-18T02:02:14.746Z,22.90
2023-03-18T02:04:48.203Z,19.60
2023-03-18T02:07:19.182Z,16.65
2023-03-18T02:09:47.312Z,18.25
2023-03-18T02:12:15.632Z,18.38
2023-03-18T02:14:43.121Z,18.73
2023-03-18T02:17:13.158Z,16.70
2023-03-18T02:19:47.871Z,19.02
2023-03-18T02:22:15.343Z,21.85
2023-03-18T02:24:42.422Z,19.98
2023-03-18T02:27:17.432Z,20.25
2023-03-18T02:29:44.750Z,20.30
2023-03-18T02:32:12.182Z,19.67
2023-03-18T02:34:40.897Z,18.02
2023-03-18T02:37:08.126Z,19.08
2023-03-18T02:39:35.727Z,16.17
2023-03-18T02:42:02.998Z,16.55
2023-03-18T02:44:30.293Z,19.33
2023-03-18T02:46:59.935Z,18.45
2023-03-18T02:49:27.794Z,17.40
2023-03-18T02:51:55.483Z,14.90
2023-03-18T02:54:24.240Z,16.52
2023-03-18T02:56:52.008Z,17.02
2023-03-18T02:59:19.653Z,16.20
2023-03-18T03:01:47.821Z,16.30
2023-03-18T03:04:16.169Z,15.77
2023-03-18T03:06:44.101Z,13.60
2023-03-18T03:09:13.471Z,15.50
2023-03-18T03:11:40.879Z,13.25
2023-03-18T03:14:09.400Z,16.00
2023-03-18T03:16:37.762Z,12.73
2023-03-18T03:19:06.135Z,13.48
2023-03-18T03:21:35.805Z,13.60
2023-03-18T03:24:04.605Z,13.40
2023-03-18T03:26:31.884Z,17.63
2023-03-18T03:29:00.397Z,13.05
2023-03-18T03:31:27.639Z,16.42
2023-03-18T03:33:54.898Z,13.30
2023-03-18T03:36:22.059Z,12.23
2023-03-18T03:38:49.151Z,15.32
2023-03-18T03:41:16.304Z,14.45
2023-03-18T03:43:44.742Z,19.25
2023-03-18T03:46:11.980Z,17.17
2023-03-18T03:48:39.716Z,15.98
2023-03-18T03:51:07.556Z,14.13
2023-03-18T03:53:35.992Z,14.65
2023-03-18T03:56:03.710Z,13.55
2023-03-18T03:58:30.844Z,15.77
2023-03-18T04:00:58.349Z,14.15
2023-03-18T04:03:25.673Z,14.80
2023-03-18T04:05:52.995Z,16.25
2023-03-18T04:08:20.646Z,15.40
2023-03-18T04:10:47.803Z,12.82
2023-03-18T04:13:14.876Z,14.82
2023-03-18T04:15:42.238Z,16.83
2023-03-18T04:18:09.600Z,13.60
2023-03-18T04:20:40.103Z,16.05
2023-03-18T04:23:07.821Z,19.83
2023-03-18T04:25:35.399Z,15.23
2023-03-18T04:28:02.899Z,15.40
2023-03-18T04:30:30.793Z,11.55
2023-03-18T04:32:59.699Z,15.13
2023-03-18T04:35:26.996Z,16.45
2023-03-18T04:37:54.667Z,16.95
2023-03-18T04:40:21.882Z,15.07
2023-03-18T04:42:48.953Z,14.43
2023-03-18T04:45:16.999Z,16.25
2023-03-18T04:47:45.397Z,17.15
2023-03-18T04:50:13.648Z,16.95
2023-03-18T04:52:41.315Z,13.38
2023-03-18T04:55:09.674Z,15.75
2023-03-18T04:57:38.421Z,17.45
2023-03-18T05:00:07.663Z,17.08
2023-03-18T05:02:36.111Z,16.15
2023-03-18T05:05:03.364Z,13.80
2023-03-18T05:07:30.583Z,15.30
2023-03-18T05:09:57.804Z,15.35
2023-03-18T05:12:25.637Z,16.88
2023-03-18T05:14:53.283Z,19.38
2023-03-18T05:17:20.601Z,14.07
2023-03-18T05:19:48.448Z,16.13
2023-03-18T05:22:17.483Z,14.02
2023-03-18T05:24:46.158Z,14.48
2023-03-18T05:27:18.346Z,14.32
2023-03-18T05:29:46.047Z,14.18
2023-03-18T05:32:14.837Z,18.90
2023-03-18T05:34:42.476Z,15.25
2023-03-18T05:37:10.498Z,13.43
2023-03-18T05:39:38.187Z,13.40
2023-03-18T05:42:06.377Z,16.20
2023-03-18T05:44:34.072Z,13.13
2023-03-18T05:47:01.807Z,12.77
2023-03-18T05:49:29.073Z,14.23
2023-03-18T05:51:56.993Z,13.52
2023-03-18T05:54:24.231Z,11.63
2023-03-18T05:56:52.723Z,14.38
2023-03-18T05:59:20.743Z,12.38
2023-03-18T06:01:49.081Z,11.65
2023-03-18T06:04:17.257Z,12.23
2023-03-18T06:06:44.420Z,11.48
2023-03-18T06:09:12.958Z,10.90
2023-03-18T06:11:40.591Z,10.10
2023-03-18T06:14:08.407Z,12.48
2023-03-18T06:16:36.152Z,12.60
2023-03-18T06:19:04.029Z,10.23
2023-03-18T06:21:33.092Z,9.27
2023-03-18T06:24:00.537Z,7.57
2023-03-18T06:26:28.113Z,12.73
2023-03-18T06:28:55.206Z,9.10
2023-03-18T06:31:22.497Z,9.27
2023-03-18T06:33:50.017Z,9.90
2023-03-18T06:36:17.795Z,11.77
2023-03-18T06:38:45.901Z,11.40
2023-03-18T06:41:13.244Z,7.80
2023-03-18T06:43:40.361Z,8.63
2023-03-18T06:46:07.798Z,11.13
2023-03-18T06:48:35.819Z,8.90
2023-03-18T06:51:03.908Z,8.68
2023-03-18T06:53:31.065Z,10.52
2023-03-18T06:55:58.169Z,11.85
2023-03-18T06:58:25.954Z,13.63
2023-03-18T07:00:53.244Z,7.65
2023-03-18T07:03:21.591Z,10.88
2023-03-18T07:05:48.727Z,8.88
2023-03-18T07:08:16.826Z,9.80
2023-03-18T07:10:43.941Z,7.30
2023-03-18T07:13:13.225Z,9.48
2023-03-18T07:15:40.359Z,11.32
2023-03-18T07:18:07.499Z,7.75
2023-03-18T07:20:36.662Z,9.13
2023-03-18T07:23:04.106Z,7.72
2023-03-18T07:25:32.488Z,10.60
2023-03-18T07:28:00.492Z,8.48
2023-03-18T07:30:28.913Z,8.48
2023-03-18T07:32:56.517Z,10.07
2023-03-18T07:35:23.797Z,11.10
2023-03-18T07:37:51.495Z,9.57
2023-03-18T07:40:18.754Z,16.02
2023-03-18T07:42:46.015Z,12.05
2023-03-18T07:45:13.185Z,9.32
2023-03-18T07:47:40.270Z,9.90
2023-03-18T07:50:07.674Z,9.82
2023-03-18T07:52:35.815Z,9.52
2023-03-18T07:55:03.112Z,9.50
2023-03-18T07:57:30.232Z,8.65
2023-03-18T07:59:57.412Z,9.07
2023-03-18T08:02:25.336Z,8.85
2023-03-18T08:04:52.675Z,9.00
2023-03-18T08:07:19.988Z,9.75
2023-03-18T08:09:47.081Z,12.13
2023-03-18T08:12:14.196Z,10.52
2023-03-18T08:14:41.784Z,9.27
2023-03-18T08:17:08.945Z,10.38
2023-03-18T08:19:36.298Z,9.40
2023-03-18T08:22:03.502Z,8.27
2023-03-18T08:24:30.652Z,9.48
2023-03-18T08:26:57.828Z,7.55
2023-03-18T08:29:24.976Z,7.28
2023-03-18T08:31:52.119Z,7.30
2023-03-18T08:34:19.223Z,8.45
2023-03-18T08:36:46.355Z,9.77
2023-03-18T08:39:13.440Z,8.98
2023-03-18T08:41:40.905Z,8.48
2023-03-18T08:44:10.782Z,8.88
2023-03-18T08:46:38.490Z,13.32
2023-03-18T08:49:06.148Z,9.48
2023-03-18T08:51:33.303Z,7.25
2023-03-18T08:54:00.615Z,11.00
2023-03-18T08:56:28.117Z,12.80
2023-03-18T08:58:55.304Z,9.63
2023-03-18T09:01:22.560Z,10.43
2023-03-18T09:03:50.734Z,8.27
2023-03-18T09:06:18.183Z,14.75
2023-03-18T09:08:45.297Z,8.85
2023-03-18T09:11:13.759Z,10.25
2023-03-18T09:13:41.220Z,11.68
2023-03-18T09:16:08.517Z,10.63
2023-03-18T09:18:35.672Z,14.25
2023-03-18T09:21:03.349Z,9.48
2023-03-18T09:23:30.431Z,8.73
2023-03-18T09:25:57.543Z,9.73
2023-03-18T09:28:25.041Z,8.88
2023-03-18T09:30:52.582Z,12.10
2023-03-18T09:33:20.755Z,7.22
2023-03-18T09:35:48.633Z,7.22
2023-03-18T09:38:17.179Z,6.80
2023-03-18T09:41:04.563Z,6.85
2023-03-18T09:43:37.845Z,7.43
2023-03-18T09:46:11.552Z,8.27
2023-03-18T09:48:45.900Z,7.10
2023-03-18T09:51:18.177Z,4.68
2023-03-18T09:53:53.296Z,7.32
2023-03-18T09:56:24.520Z,7.13
2023-03-18T09:59:13.366Z,8.95
2023-03-18T10:01:41.318Z,7.68
2023-03-18T10:04:21.513Z,7.63
2023-03-18T10:06:50.816Z,7.30
2023-03-18T10:09:31.922Z,6.30
2023-03-18T10:12:07.436Z,7.13
2023-03-18T10:14:37.974Z,9.27
2023-03-18T10:17:14.140Z,10.95
2023-03-18T10:19:45.602Z,8.55
2023-03-18T10:22:18.804Z,9.27
2023-03-18T10:24:48.918Z,9.30
2023-03-18T10:27:19.967Z,8.18
2023-03-18T10:29:50.225Z,8.30
2023-03-18T10:32:20.403Z,11.10
2023-03-18T10:34:47.517Z,8.63
2023-03-18T10:37:34.961Z,8.05
2023-03-18T10:40:02.273Z,5.97
2023-03-18T10:42:32.661Z,8.43
2023-03-18T10:45:14.939Z,6.43
2023-03-18T10:47:44.510Z,11.32
2023-03-18T10:50:17.782Z,7.53
2023-03-18T10:53:03.643Z,10.32
2023-03-18T10:55:34.224Z,10.45
2023-03-18T10:58:02.644Z,7.03
2023-03-18T11:00:33.005Z,6.57
2023-03-18T11:03:00.622Z,10.82
2023-03-18T11:05:29.340Z,15.40
2023-03-18T11:08:05.053Z,8.13
2023-03-18T11:10:34.874Z,7.47
2023-03-18T11:13:02.726Z,8.15
2023-03-18T11:15:31.282Z,10.15
2023-03-18T11:18:02.571Z,9.07
2023-03-18T11:23:12.105Z,6.90
2023-03-18T11:25:40.561Z,8.38
2023-03-18T11:28:19.444Z,6.40
2023-03-18T11:30:51.756Z,8.60
2023-03-18T11:33:19.768Z,7.15
2023-03-18T11:35:48.210Z,8.10
2023-03-18T11:38:19.779Z,8.00
2023-03-18T11:40:47.372Z,7.53
2023-03-18T11:43:19.954Z,7.50
2023-03-18T11:46:01.379Z,12.13
2023-03-18T11:51:14.080Z,7.65
2023-03-18T11:53:52.668Z,9.13
2023-03-18T11:56:27.544Z,7.57
2023-03-18T11:59:05.035Z,7.22
2023-03-18T12:01:47.569Z,7.15
2023-03-18T12:04:23.534Z,7.55
2023-03-18T12:06:59.154Z,7.60
2023-03-18T12:09:31.420Z,8.52
2023-03-18T12:12:02.067Z,8.38
2023-03-18T12:14:35.855Z,7.82
2023-03-18T12:17:06.369Z,7.63
2023-03-18T12:19:33.488Z,8.38
2023-03-18T12:22:13.508Z,9.30
2023-03-18T12:24:43.344Z,9.55
2023-03-18T12:27:14.477Z,8.10
2023-03-18T12:29:53.682Z,5.70
2023-03-18T12:32:31.569Z,7.45
2023-03-18T12:35:16.067Z,6.80
2023-03-18T12:38:02.286Z,8.80
2023-03-18T12:40:45.446Z,8.50
2023-03-18T12:43:31.051Z,5.40
2023-03-18T12:46:04.233Z,5.65
2023-03-18T12:48:43.812Z,5.70
2023-03-18T12:51:15.499Z,8.23
2023-03-18T12:53:47.189Z,8.75
2023-03-18T12:56:19.559Z,8.10
2023-03-18T12:58:48.841Z,6.72
2023-03-18T13:01:22.165Z,6.63
2023-03-18T13:03:51.185Z,7.05
2023-03-18T13:06:22.245Z,10.75
2023-03-18T13:08:56.596Z,6.82
2023-03-18T13:11:46.011Z,6.60
2023-03-18T13:14:25.933Z,10.63
2023-03-18T13:16:54.229Z,8.13
2023-03-18T13:19:21.422Z,7.82
2023-03-18T13:22:07.488Z,8.88
2023-03-18T13:24:34.621Z,8.63
2023-03-18T13:27:10.854Z,8.68
2023-03-18T13:29:45.219Z,8.40
2023-03-18T13:32:31.120Z,8.77
2023-03-18T13:35:08.817Z,8.95
2023-03-18T13:38:03.983Z,7.90
2023-03-18T13:40:34.310Z,10.75
2023-03-18T13:43:02.159Z,9.17
2023-03-18T13:45:39.495Z,11.23
2023-03-18T13:48:08.728Z,8.30
2023-03-18T13:50:37.943Z,8.95
2023-03-18T13:53:06.403Z,7.88
2023-03-18T13:55:39.795Z,8.20
2023-03-18T13:58:07.499Z,8.18
2023-03-18T14:00:36.222Z,9.15
2023-03-18T14:03:06.709Z,10.48
2023-03-18T14:05:34.179Z,9.50
2023-03-18T14:08:05.256Z,10.60
2023-03-18T14:10:32.638Z,9.05
2023-03-18T14:13:19.780Z,8.93
2023-03-18T14:15:47.197Z,11.23
2023-03-18T14:18:36.579Z,9.95
2023-03-18T14:21:05.388Z,10.50
2023-03-18T14:23:38.678Z,9.02
2023-03-18T14:26:21.130Z,10.30
2023-03-18T14:28:50.732Z,9.57
2023-03-18T14:31:32.640Z,8.35
2023-03-18T14:34:02.856Z,7.60
2023-03-18T14:36:48.997Z,7.93
2023-03-18T14:39:19.225Z,7.80
2023-03-18T14:41:49.079Z,7.38
2023-03-18T14:44:21.334Z,6.57
2023-03-18T14:46:51.501Z,7.05
2023-03-18T14:49:41.968Z,7.63
2023-03-18T14:52:30.190Z,7.13
2023-03-18T14:54:59.677Z,6.38
2023-03-18T14:57:26.813Z,9.30
2023-03-18T14:59:53.946Z,8.20
2023-03-18T15:02:26.910Z,6.00
2023-03-18T15:04:55.589Z,9.63
2023-03-18T15:07:29.954Z,11.02
2023-03-18T15:09:57.070Z,8.13
2023-03-18T15:12:26.937Z,8.13
2023-03-18T15:14:54.337Z,6.90
2023-03-18T15:17:21.457Z,6.78
2023-03-18T15:19:48.524Z,7.90
2023-03-18T15:22:21.180Z,7.28
2023-03-18T15:24:48.461Z,8.23
2023-03-18T15:27:18.591Z,8.82
2023-03-18T15:29:49.474Z,7.20
2023-03-18T15:32:33.075Z,7.15
2023-03-18T15:35:19.027Z,10.93
2023-03-18T15:37:47.133Z,9.35
2023-03-18T15:40:33.250Z,11.75
2023-03-18T15:43:17.275Z,11.90
2023-03-18T15:45:55.157Z,11.20
2023-03-18T15:48:29.680Z,13.57
2023-03-18T15:51:01.710Z,15.95
2023-03-18T15:53:30.308Z,13.52
2023-03-18T15:55:58.971Z,15.38
2023-03-18T15:58:35.389Z,12.02
2023-03-18T16:01:02.803Z,11.55
2023-03-18T16:03:33.633Z,9.57
2023-03-18T16:06:01.396Z,7.80
2023-03-18T16:08:28.771Z,11.18
2023-03-18T16:10:58.111Z,7.93
2023-03-18T16:13:27.279Z,9.82
2023-03-18T16:15:54.379Z,10.40
2023-03-18T16:18:21.757Z,9.18
2023-03-18T16:20:50.422Z,10.32
2023-03-18T16:23:18.831Z,9.23
2023-03-18T16:25:47.722Z,10.48
2023-03-18T16:28:25.903Z,10.48
2023-03-18T16:30:55.242Z,11.88
2023-03-18T16:33:23.321Z,12.73
2023-03-18T16:35:54.003Z,9.80
2023-03-18T16:38:21.762Z,11.52
2023-03-18T16:40:49.038Z,8.68
2023-03-18T16:43:17.366Z,9.40
2023-03-18T16:45:44.701Z,12.27
2023-03-18T16:48:15.543Z,10.15
2023-03-18T16:50:43.622Z,12.27
2023-03-18T16:53:17.309Z,11.63
2023-03-18T16:55:45.715Z,10.70
2023-03-18T16:58:14.294Z,11.45
2023-03-18T17:00:41.531Z,13.77
2023-03-18T17:03:11.834Z,12.15
2023-03-18T17:05:38.952Z,12.85
2023-03-18T17:08:06.248Z,14.68
2023-03-18T17:10:34.660Z,21.58
2023-03-18T17:13:05.806Z,20.77
2023-03-18T17:15:36.979Z,15.07
2023-03-18T17:18:05.109Z,15.65
2023-03-18T17:20:32.857Z,14.88
2023-03-18T17:23:01.020Z,16.60
2023-03-18T17:25:30.360Z,20.27
2023-03-18T17:28:02.404Z,18.55
2023-03-18T17:30:33.711Z,16.38
2023-03-18T17:33:02.633Z,19.95
2023-03-18T17:35:29.877Z,24.92
2023-03-18T17:37:57.187Z,20.58
2023-03-18T17:40:27.045Z,21.40
2023-03-18T17:42:54.244Z,19.92
2023-03-18T17:45:25.875Z,17.92
2023-03-18T17:47:53.550Z,21.20
2023-03-18T17:50:21.112Z,20.08
2023-03-18T17:52:50.186Z,19.17
2023-03-18T17:55:18.899Z,20.42
2023-03-18T17:57:46.947Z,20.35
2023-03-18T18:00:15.719Z,20.45
2023-03-18T18:02:43.594Z,21.45
2023-03-18T18:05:15.058Z,24.67
2023-03-18T18:10:11.265Z,22.85
2023-03-18T18:12:38.593Z,23.30
2023-03-18T18:15:06.521Z,24.00
2023-03-18T18:17:33.662Z,23.08
2023-03-18T18:20:00.816Z,29.40
2023-03-18T18:22:27.907Z,24.48
2023-03-18T18:24:56.532Z,30.90
2023-03-18T18:27:24.357Z,30.00
2023-03-18T18:29:51.781Z,26.92
2023-03-18T18:32:21.774Z,24.40
2023-03-18T18:34:49.283Z,21.55
2023-03-18T18:37:16.530Z,23.85
2023-03-18T18:39:43.638Z,20.95
2023-03-18T18:42:12.403Z,24.35
2023-03-18T18:44:40.247Z,25.58
2023-03-18T18:47:17.518Z,27.42
2023-03-18T18:49:44.620Z,22.83
2023-03-18T18:52:12.488Z,22.08
2023-03-18T18:54:39.618Z,24.42
2023-03-18T18:57:07.362Z,25.67
2023-03-18T18:59:34.981Z,22.75
2023-03-18T19:02:03.487Z,23.35
2023-03-18T19:04:30.659Z,27.40
2023-03-18T19:06:58.374Z,26.40
2023-03-18T19:09:26.513Z,22.42
2023-03-18T19:11:56.114Z,24.55
2023-03-18T19:14:24.769Z,24.50
2023-03-18T19:16:53.747Z,21.17
2023-03-18T19:19:22.592Z,24.85
2023-03-18T19:21:50.998Z,23.80
2023-03-18T19:24:28.062Z,24.38
2023-03-18T19:26:56.271Z,28.05
2023-03-18T19:29:23.531Z,23.83
2023-03-18T19:31:50.966Z,26.27
2023-03-18T19:34:18.626Z,22.40
2023-03-18T19:36:48.547Z,25.95
2023-03-18T19:39:16.861Z,25.13
2023-03-18T19:41:44.271Z,22.92
2023-03-18T19:44:18.989Z,23.63
2023-03-18T19:46:47.828Z,23.73
2023-03-18T19:49:24.052Z,23.25
2023-03-18T19:51:51.627Z,22.30
2023-03-18T19:54:32.887Z,22.83
2023-03-18T19:57:02.412Z,21.92
2023-03-18T19:59:38.138Z,22.33
2023-03-18T20:02:17.298Z,24.92
2023-03-18T20:04:44.454Z,24.95
2023-03-18T20:07:11.542Z,24.83
2023-03-18T20:09:39.385Z,25.65
2023-03-18T20:12:07.138Z,23.42
2023-03-18T20:14:39.101Z,28.27
2023-03-18T20:17:24.692Z,25.00
2023-03-18T20:19:51.854Z,27.35
2023-03-18T20:22:30.526Z,33.22
2023-03-18T20:24:57.770Z,34.78
2023-03-18T20:27:25.108Z,37.95
2023-03-18T20:29:52.262Z,37.15
2023-03-18T20:32:19.382Z,35.20
2023-03-18T20:34:47.035Z,41.83
2023-03-18T20:37:22.054Z,44.28
2023-03-18T20:39:50.020Z,48.70
2023-03-18T20:42:17.620Z,53.05
2023-03-18T20:44:45.708Z,45.78
2023-03-18T20:47:13.555Z,47.20
2023-03-18T20:49:44.500Z,45.15
2023-03-18T20:52:22.985Z,45.80
2023-03-18T20:54:50.185Z,43.20
2023-03-18T20:57:18.790Z,50.08
2023-03-18T20:59:46.808Z,48.05
2023-03-18T21:02:33.527Z,46.40
2023-03-18T21:05:01.760Z,46.60
2023-03-18T21:07:29.432Z,49.47
2023-03-18T21:09:56.634Z,49.17
2023-03-18T21:12:23.924Z,52.53
2023-03-18T21:14:51.126Z,56.22
2023-03-18T21:17:22.204Z,50.72
2023-03-18T21:19:49.838Z,50.55
2023-03-18T21:22:35.070Z,51.33
2023-03-18T21:25:02.235Z,49.75
2023-03-18T21:27:29.836Z,53.83
2023-03-18T21:30:00.166Z,59.10
2023-03-18T21:32:29.989Z,52.25
2023-03-18T21:34:57.195Z,54.92
2023-03-18T21:37:25.497Z,50.55
2023-03-18T21:39:53.203Z,61.92
2023-03-18T21:42:23.746Z,55.35
2023-03-18T21:44:51.467Z,50.08
2023-03-18T21:47:20.217Z,65.50
2023-03-18T21:49:47.663Z,63.95
2023-03-18T21:52:31.404Z,69.78
2023-03-18T21:54:59.088Z,61.85
2023-03-18T21:57:26.627Z,57.17
2023-03-18T21:59:54.288Z,58.78
2023-03-18T22:02:27.513Z,58.90
2023-03-18T22:04:58.642Z,61.88
2023-03-18T22:07:29.878Z,49.40
2023-03-18T22:09:57.686Z,56.13
2023-03-18T22:12:24.861Z,55.20
2023-03-18T22:14:52.088Z,57.95
2023-03-18T22:17:20.417Z,57.03
2023-03-18T22:19:48.248Z,55.53
2023-03-18T22:22:16.696Z,57.22
2023-03-18T22:24:44.161Z,54.58
2023-03-18T22:27:17.377Z,51.22
2023-03-18T22:29:44.448Z,38.75
2023-03-18T22:32:23.646Z,35.30
2023-03-18T22:34:51.091Z,56.65
2023-03-18T22:37:22.239Z,49.70
2023-03-18T22:42:18.244Z,39.35
2023-03-18T22:44:45.454Z,40.28
2023-03-18T22:47:16.585Z,36.10
2023-03-18T22:49:43.746Z,40.95
2023-03-18T22:52:21.160Z,45.03
2023-03-18T22:54:49.108Z,40.72
2023-03-18T22:57:20.834Z,42.15
2023-03-18T22:59:48.010Z,41.67
2023-03-18T23:02:21.880Z,32.95
2023-03-18T23:04:49.669Z,33.22
2023-03-18T23:07:31.144Z,26.42
2023-03-18T23:09:59.524Z,26.10
2023-03-18T23:12:27.584Z,25.75
2023-03-18T23:14:55.171Z,22.45
2023-03-18T23:17:23.688Z,23.52
2023-03-18T23:19:51.147Z,22.73
2023-03-18T23:22:22.396Z,26.50
2023-03-18T23:27:16.704Z,25.63
2023-03-18T23:29:43.906Z,23.90
2023-03-18T23:32:11.702Z,23.38
2023-03-18T23:34:38.831Z,22.10
2023-03-18T23:37:05.978Z,21.77
2023-03-18T23:39:33.273Z,20.42
2023-03-18T23:42:00.692Z,20.45
2023-03-18T23:44:28.277Z,18.77
2023-03-18T23:46:55.701Z,16.52
2023-03-18T23:49:22.856Z,17.60
2023-03-18T23:51:50.007Z,18.52
2023-03-18T23:54:17.428Z,17.08
2023-03-18T23:56:44.617Z,17.33
2023-03-18T23:59:11.716Z,17.63
